sensor_id;sensor_type;location;lat;lon;timestamp;P1;durP1;ratioP1;P2;durP2;ratioP2
21120;SDS011;12519;43.318;21.898;2023-02-28T00:00:54;31.0;;;23.0;;
21120;SDS011;12519;43.318;21.898;2023-02-28T00:05:31;31.0;;;23.0;;
21120;SDS011;12519;43.318;21.898;2023-02-28T00:10:12;28.0;;;22.0;;
21120;SDS011;12519;43.318;21.898;2023-02-28T00:14:54;28.0;;;22.0;;
21120;SDS011;12519;43.318;21.898;2023-02-28T00:19:30;28.0;;;22.0;;
21120;SDS011;12519;43.318;21.898;2023-02-28T00:24:07;26.0;;;22.0;;
21120;SDS011;12519;43.318;21.898;2023-02-28T00:28:44;26.0;;;22.0;;
21120;SDS011;12519;43.318;21.898;2023-02-28T00:33:21;26.0;;;22.0;;
21120;SDS011;12519;43.318;21.898;2023-02-28T00:37:58;26.0;;;22.0;;
21120;SDS011;12519;43.318;21.898;2023-02-28T00:42:35;25.0;;;22.0;;
21120;SDS011;12519;43.318;21.898;2023-02-28T00:47:14;25.0;;;22.0;;
21120;SDS011;12519;43.318;21.898;2023-02-28T00:51:53;26.0;;;22.0;;
21120;SDS011;12519;43.318;21.898;2023-02-28T00:56:32;26.0;;;22.0;;
21120;SDS011;12519;43.318;21.898;2023-02-28T01:01:09;27.0;;;21.0;;
21120;SDS011;12519;43.318;21.898;2023-02-28T01:05:47;27.0;;;21.0;;
21120;SDS011;12519;43.318;21.898;2023-02-28T01:10:25;32.0;;;21.0;;
21120;SDS011;12519;43.318;21.898;2023-02-28T01:15:06;32.0;;;21.0;;
21120;SDS011;12519;43.318;21.898;2023-02-28T01:19:47;32.0;;;21.0;;
21120;SDS011;12519;43.318;21.898;2023-02-28T01:24:24;38.0;;;21.0;;
21120;SDS011;12519;43.318;21.898;2023-02-28T01:29:01;38.0;;;21.0;;
21120;SDS011;12519;43.318;21.898;2023-02-28T01:33:40;29.0;;;20.0;;
21120;SDS011;12519;43.318;21.898;2023-02-28T01:38:17;29.0;;;20.0;;
21120;SDS011;12519;43.318;21.898;2023-02-28T01:42:54;20.0;;;18.0;;
21120;SDS011;12519;43.318;21.898;2023-02-28T01:47:35;20.0;;;18.0;;
21120;SDS011;12519;43.318;21.898;2023-02-28T01:52:26;21.0;;;18.0;;
21120;SDS011;12519;43.318;21.898;2023-02-28T01:57:15;21.0;;;18.0;;
21120;SDS011;12519;43.318;21.898;2023-02-28T02:02:12;22.0;;;19.0;;
21120;SDS011;12519;43.318;21.898;2023-02-28T02:06:56;22.0;;;19.0;;
21120;SDS011;12519;43.318;21.898;2023-02-28T02:11:37;27.0;;;20.0;;
21120;SDS011;12519;43.318;21.898;2023-02-28T02:16:35;27.0;;;20.0;;
21120;SDS011;12519;43.318;21.898;2023-02-28T02:22:25;32.0;;;20.0;;
21120;SDS011;12519;43.318;21.898;2023-02-28T02:31:48;32.0;;;20.0;;
21120;SDS011;12519;43.318;21.898;2023-02-28T02:37:25;29.0;;;19.0;;
21120;SDS011;12519;43.318;21.898;2023-02-28T02:42:25;26.0;;;18.0;;
21120;SDS011;12519;43.318;21.898;2023-02-28T02:47:24;26.0;;;18.0;;
21120;SDS011;12519;43.318;21.898;2023-02-28T02:52:14;25.0;;;18.0;;
21120;SDS011;12519;43.318;21.898;2023-02-28T02:57:12;25.0;;;18.0;;
21120;SDS011;12519;43.318;21.898;2023-02-28T03:02:10;24.0;;;17.0;;
21120;SDS011;12519;43.318;21.898;2023-02-28T03:06:59;24.0;;;17.0;;
21120;SDS011;12519;43.318;21.898;2023-02-28T03:11:38;26.0;;;18.0;;
21120;SDS011;12519;43.318;21.898;2023-02-28T03:16:36;26.0;;;18.0;;
21120;SDS011;12519;43.318;21.898;2023-02-28T03:22:40;29.0;;;20.0;;
21120;SDS011;12519;43.318;21.898;2023-02-28T03:28:05;29.0;;;20.0;;
21120;SDS011;12519;43.318;21.898;2023-02-28T03:33:30;24.0;;;19.0;;
21120;SDS011;12519;43.318;21.898;2023-02-28T03:38:38;24.0;;;19.0;;
21120;SDS011;12519;43.318;21.898;2023-02-28T03:43:43;19.0;;;18.0;;
21120;SDS011;12519;43.318;21.898;2023-02-28T03:48:46;19.0;;;18.0;;
21120;SDS011;12519;43.318;21.898;2023-02-28T03:53:50;26.0;;;19.0;;
21120;SDS011;12519;43.318;21.898;2023-02-28T03:58:53;26.0;;;19.0;;
21120;SDS011;12519;43.318;21.898;2023-02-28T04:03:50;32.0;;;20.0;;
21120;SDS011;12519;43.318;21.898;2023-02-28T04:08:28;32.0;;;20.0;;
21120;SDS011;12519;43.318;21.898;2023-02-28T04:13:04;34.0;;;19.0;;
21120;SDS011;12519;43.318;21.898;2023-02-28T04:17:41;34.0;;;19.0;;
21120;SDS011;12519;43.318;21.898;2023-02-28T04:22:17;35.0;;;18.0;;
21120;SDS011;12519;43.318;21.898;2023-02-28T04:26:57;35.0;;;18.0;;
21120;SDS011;12519;43.318;21.898;2023-02-28T04:31:34;30.0;;;20.0;;
21120;SDS011;12519;43.318;21.898;2023-02-28T04:36:11;30.0;;;20.0;;
21120;SDS011;12519;43.318;21.898;2023-02-28T04:40:48;25.0;;;22.0;;
21120;SDS011;12519;43.318;21.898;2023-02-28T04:45:25;25.0;;;22.0;;
21120;SDS011;12519;43.318;21.898;2023-02-28T04:50:03;25.0;;;22.0;;
21120;SDS011;12519;43.318;21.898;2023-02-28T04:54:42;24.0;;;20.0;;
21120;SDS011;12519;43.318;21.898;2023-02-28T04:59:19;24.0;;;20.0;;
21120;SDS011;12519;43.318;21.898;2023-02-28T05:03:58;24.0;;;18.0;;
21120;SDS011;12519;43.318;21.898;2023-02-28T05:08:40;24.0;;;18.0;;
21120;SDS011;12519;43.318;21.898;2023-02-28T05:13:17;26.0;;;20.0;;
21120;SDS011;12519;43.318;21.898;2023-02-28T05:17:54;26.0;;;20.0;;
21120;SDS011;12519;43.318;21.898;2023-02-28T05:22:30;27.0;;;22.0;;
21120;SDS011;12519;43.318;21.898;2023-02-28T05:27:08;27.0;;;22.0;;
21120;SDS011;12519;43.318;21.898;2023-02-28T05:31:46;28.0;;;21.0;;
21120;SDS011;12519;43.318;21.898;2023-02-28T05:36:23;28.0;;;21.0;;
21120;SDS011;12519;43.318;21.898;2023-02-28T05:41:05;30.0;;;20.0;;
21120;SDS011;12519;43.318;21.898;2023-02-28T05:45:46;30.0;;;20.0;;
21120;SDS011;12519;43.318;21.898;2023-02-28T05:50:22;30.0;;;20.0;;
21120;SDS011;12519;43.318;21.898;2023-02-28T05:54:59;32.0;;;22.0;;
21120;SDS011;12519;43.318;21.898;2023-02-28T05:59:36;32.0;;;22.0;;
21120;SDS011;12519;43.318;21.898;2023-02-28T06:04:14;35.0;;;23.0;;
21120;SDS011;12519;43.318;21.898;2023-02-28T06:08:57;35.0;;;23.0;;
21120;SDS011;12519;43.318;21.898;2023-02-28T06:13:33;36.0;;;24.0;;
21120;SDS011;12519;43.318;21.898;2023-02-28T06:18:10;36.0;;;24.0;;
21120;SDS011;12519;43.318;21.898;2023-02-28T06:22:47;36.0;;;26.0;;
21120;SDS011;12519;43.318;21.898;2023-02-28T06:27:23;36.0;;;26.0;;
21120;SDS011;12519;43.318;21.898;2023-02-28T06:32:00;42.0;;;27.0;;
21120;SDS011;12519;43.318;21.898;2023-02-28T06:36:37;42.0;;;27.0;;
21120;SDS011;12519;43.318;21.898;2023-02-28T06:41:14;48.0;;;28.0;;
21120;SDS011;12519;43.318;21.898;2023-02-28T06:45:54;48.0;;;28.0;;
21120;SDS011;12519;43.318;21.898;2023-02-28T06:50:34;48.0;;;28.0;;
21120;SDS011;12519;43.318;21.898;2023-02-28T06:55:12;70.0;;;50.0;;
21120;SDS011;12519;43.318;21.898;2023-02-28T06:59:49;70.0;;;50.0;;
21120;SDS011;12519;43.318;21.898;2023-02-28T07:04:25;92.0;;;72.0;;
21120;SDS011;12519;43.318;21.898;2023-02-28T07:09:03;92.0;;;72.0;;
21120;SDS011;12519;43.318;21.898;2023-02-28T07:13:40;66.0;;;50.0;;
21120;SDS011;12519;43.318;21.898;2023-02-28T07:18:18;66.0;;;50.0;;
21120;SDS011;12519;43.318;21.898;2023-02-28T07:22:55;41.0;;;29.0;;
21120;SDS011;12519;43.318;21.898;2023-02-28T07:27:31;41.0;;;29.0;;
21120;SDS011;12519;43.318;21.898;2023-02-28T07:32:08;42.0;;;30.0;;
21120;SDS011;12519;43.318;21.898;2023-02-28T07:36:45;42.0;;;30.0;;
21120;SDS011;12519;43.318;21.898;2023-02-28T07:41:22;44.0;;;31.0;;
21120;SDS011;12519;43.318;21.898;2023-02-28T07:46:02;44.0;;;31.0;;
21120;SDS011;12519;43.318;21.898;2023-02-28T07:50:54;44.0;;;31.0;;
21120;SDS011;12519;43.318;21.898;2023-02-28T07:55:33;40.0;;;29.0;;
21120;SDS011;12519;43.318;21.898;2023-02-28T08:00:11;40.0;;;29.0;;
21120;SDS011;12519;43.318;21.898;2023-02-28T08:04:49;37.0;;;27.0;;
21120;SDS011;12519;43.318;21.898;2023-02-28T08:09:26;37.0;;;27.0;;
21120;SDS011;12519;43.318;21.898;2023-02-28T08:14:02;36.0;;;27.0;;
21120;SDS011;12519;43.318;21.898;2023-02-28T08:18:39;36.0;;;27.0;;
21120;SDS011;12519;43.318;21.898;2023-02-28T08:23:15;34.0;;;27.0;;
21120;SDS011;12519;43.318;21.898;2023-02-28T08:27:52;34.0;;;27.0;;
21120;SDS011;12519;43.318;21.898;2023-02-28T08:32:29;39.0;;;28.0;;
21120;SDS011;12519;43.318;21.898;2023-02-28T08:37:08;39.0;;;28.0;;
21120;SDS011;12519;43.318;21.898;2023-02-28T08:41:46;44.0;;;30.0;;
21120;SDS011;12519;43.318;21.898;2023-02-28T08:46:23;44.0;;;30.0;;
21120;SDS011;12519;43.318;21.898;2023-02-28T08:51:05;44.0;;;30.0;;
21120;SDS011;12519;43.318;21.898;2023-02-28T08:55:57;44.0;;;30.0;;
21120;SDS011;12519;43.318;21.898;2023-02-28T09:00:44;44.0;;;30.0;;
21120;SDS011;12519;43.318;21.898;2023-02-28T09:05:21;44.0;;;30.0;;
21120;SDS011;12519;43.318;21.898;2023-02-28T09:09:58;44.0;;;30.0;;
21120;SDS011;12519;43.318;21.898;2023-02-28T09:14:34;44.0;;;30.0;;
21120;SDS011;12519;43.318;21.898;2023-02-28T09:19:11;44.0;;;30.0;;
21120;SDS011;12519;43.318;21.898;2023-02-28T09:23:50;44.0;;;31.0;;
21120;SDS011;12519;43.318;21.898;2023-02-28T09:28:26;44.0;;;31.0;;
21120;SDS011;12519;43.318;21.898;2023-02-28T09:33:03;52.0;;;38.0;;
21120;SDS011;12519;43.318;21.898;2023-02-28T09:37:39;52.0;;;38.0;;
21120;SDS011;12519;43.318;21.898;2023-02-28T09:42:25;60.0;;;46.0;;
21120;SDS011;12519;43.318;21.898;2023-02-28T09:47:18;60.0;;;46.0;;
21120;SDS011;12519;43.318;21.898;2023-02-28T09:52:17;54.0;;;40.0;;
21120;SDS011;12519;43.318;21.898;2023-02-28T09:57:10;54.0;;;40.0;;
21120;SDS011;12519;43.318;21.898;2023-02-28T10:02:39;47.0;;;35.0;;
21120;SDS011;12519;43.318;21.898;2023-02-28T10:08:13;47.0;;;35.0;;
21120;SDS011;12519;43.318;21.898;2023-02-28T10:13:14;44.0;;;34.0;;
21120;SDS011;12519;43.318;21.898;2023-02-28T10:18:19;44.0;;;34.0;;
21120;SDS011;12519;43.318;21.898;2023-02-28T10:23:26;40.0;;;32.0;;
21120;SDS011;12519;43.318;21.898;2023-02-28T10:28:15;40.0;;;32.0;;
21120;SDS011;12519;43.318;21.898;2023-02-28T10:32:53;42.0;;;32.0;;
21120;SDS011;12519;43.318;21.898;2023-02-28T10:37:30;42.0;;;32.0;;
21120;SDS011;12519;43.318;21.898;2023-02-28T10:42:22;45.0;;;32.0;;
21120;SDS011;12519;43.318;21.898;2023-02-28T10:47:04;45.0;;;32.0;;
21120;SDS011;12519;43.318;21.898;2023-02-28T10:51:41;48.0;;;32.0;;
21120;SDS011;12519;43.318;21.898;2023-02-28T10:56:21;48.0;;;32.0;;
21120;SDS011;12519;43.318;21.898;2023-02-28T11:01:01;48.0;;;32.0;;
21120;SDS011;12519;43.318;21.898;2023-02-28T11:05:37;51.0;;;33.0;;
21120;SDS011;12519;43.318;21.898;2023-02-28T11:10:20;51.0;;;33.0;;
21120;SDS011;12519;43.318;21.898;2023-02-28T11:15:23;47.0;;;30.0;;
21120;SDS011;12519;43.318;21.898;2023-02-28T11:20:20;47.0;;;30.0;;
21120;SDS011;12519;43.318;21.898;2023-02-28T11:25:20;43.0;;;28.0;;
21120;SDS011;12519;43.318;21.898;2023-02-28T11:30:25;43.0;;;28.0;;
21120;SDS011;12519;43.318;21.898;2023-02-28T11:35:24;47.0;;;36.0;;
21120;SDS011;12519;43.318;21.898;2023-02-28T11:40:19;47.0;;;36.0;;
21120;SDS011;12519;43.318;21.898;2023-02-28T11:46:17;51.0;;;43.0;;
21120;SDS011;12519;43.318;21.898;2023-02-28T11:51:33;51.0;;;43.0;;
21120;SDS011;12519;43.318;21.898;2023-02-28T11:56:39;46.0;;;36.0;;
21120;SDS011;12519;43.318;21.898;2023-02-28T12:01:53;40.0;;;30.0;;
21120;SDS011;12519;43.318;21.898;2023-02-28T12:07:20;40.0;;;30.0;;
21120;SDS011;12519;43.318;21.898;2023-02-28T12:12:44;40.0;;;30.0;;
21120;SDS011;12519;43.318;21.898;2023-02-28T12:18:23;40.0;;;30.0;;
21120;SDS011;12519;43.318;21.898;2023-02-28T12:24:04;39.0;;;30.0;;
21120;SDS011;12519;43.318;21.898;2023-02-28T12:29:43;39.0;;;30.0;;
21120;SDS011;12519;43.318;21.898;2023-02-28T12:34:54;44.0;;;32.0;;
21120;SDS011;12519;43.318;21.898;2023-02-28T12:40:01;44.0;;;32.0;;
21120;SDS011;12519;43.318;21.898;2023-02-28T12:45:00;50.0;;;35.0;;
21120;SDS011;12519;43.318;21.898;2023-02-28T12:50:02;50.0;;;35.0;;
21120;SDS011;12519;43.318;21.898;2023-02-28T12:54:53;46.0;;;32.0;;
21120;SDS011;12519;43.318;21.898;2023-02-28T13:00:04;46.0;;;32.0;;
21120;SDS011;12519;43.318;21.898;2023-02-28T13:05:10;41.0;;;29.0;;
21120;SDS011;12519;43.318;21.898;2023-02-28T13:10:44;41.0;;;29.0;;
21120;SDS011;12519;43.318;21.898;2023-02-28T13:15:28;40.0;;;29.0;;
21120;SDS011;12519;43.318;21.898;2023-02-28T13:20:17;40.0;;;29.0;;
21120;SDS011;12519;43.318;21.898;2023-02-28T13:25:01;38.0;;;29.0;;
21120;SDS011;12519;43.318;21.898;2023-02-28T13:31:03;38.0;;;29.0;;
21120;SDS011;12519;43.318;21.898;2023-02-28T13:35:44;46.0;;;34.0;;
21120;SDS011;12519;43.318;21.898;2023-02-28T13:40:31;46.0;;;34.0;;
21120;SDS011;12519;43.318;21.898;2023-02-28T13:45:24;55.0;;;40.0;;
21120;SDS011;12519;43.318;21.898;2023-02-28T13:50:29;55.0;;;40.0;;
21120;SDS011;12519;43.318;21.898;2023-02-28T13:55:29;44.0;;;34.0;;
21120;SDS011;12519;43.318;21.898;2023-02-28T14:00:57;44.0;;;34.0;;
21120;SDS011;12519;43.318;21.898;2023-02-28T14:06:47;32.0;;;29.0;;
21120;SDS011;12519;43.318;21.898;2023-02-28T14:11:35;32.0;;;29.0;;
21120;SDS011;12519;43.318;21.898;2023-02-28T14:16:23;36.0;;;28.0;;
21120;SDS011;12519;43.318;21.898;2023-02-28T14:21:24;36.0;;;28.0;;
21120;SDS011;12519;43.318;21.898;2023-02-28T14:26:26;40.0;;;27.0;;
21120;SDS011;12519;43.318;21.898;2023-02-28T14:32:29;37.0;;;28.0;;
21120;SDS011;12519;43.318;21.898;2023-02-28T14:37:38;37.0;;;28.0;;
21120;SDS011;12519;43.318;21.898;2023-02-28T14:42:37;34.0;;;30.0;;
21120;SDS011;12519;43.318;21.898;2023-02-28T14:47:16;34.0;;;30.0;;
21120;SDS011;12519;43.318;21.898;2023-02-28T14:52:06;34.0;;;26.0;;
21120;SDS011;12519;43.318;21.898;2023-02-28T14:56:59;34.0;;;26.0;;
21120;SDS011;12519;43.318;21.898;2023-02-28T15:01:36;34.0;;;26.0;;
21120;SDS011;12519;43.318;21.898;2023-02-28T15:06:15;33.0;;;22.0;;
21120;SDS011;12519;43.318;21.898;2023-02-28T15:10:57;33.0;;;22.0;;
21120;SDS011;12519;43.318;21.898;2023-02-28T15:15:56;32.0;;;22.0;;
21120;SDS011;12519;43.318;21.898;2023-02-28T15:20:45;32.0;;;22.0;;
21120;SDS011;12519;43.318;21.898;2023-02-28T15:25:24;30.0;;;21.0;;
21120;SDS011;12519;43.318;21.898;2023-02-28T15:30:08;30.0;;;21.0;;
21120;SDS011;12519;43.318;21.898;2023-02-28T15:35:19;33.0;;;24.0;;
21120;SDS011;12519;43.318;21.898;2023-02-28T15:40:16;33.0;;;24.0;;
21120;SDS011;12519;43.318;21.898;2023-02-28T15:45:28;36.0;;;27.0;;
21120;SDS011;12519;43.318;21.898;2023-02-28T15:50:21;36.0;;;27.0;;
21120;SDS011;12519;43.318;21.898;2023-02-28T15:54:58;34.0;;;28.0;;
21120;SDS011;12519;43.318;21.898;2023-02-28T15:59:54;34.0;;;28.0;;
21120;SDS011;12519;43.318;21.898;2023-02-28T16:04:56;32.0;;;29.0;;
21120;SDS011;12519;43.318;21.898;2023-02-28T16:09:55;32.0;;;29.0;;
21120;SDS011;12519;43.318;21.898;2023-02-28T16:14:32;33.0;;;25.0;;
21120;SDS011;12519;43.318;21.898;2023-02-28T16:19:08;33.0;;;25.0;;
21120;SDS011;12519;43.318;21.898;2023-02-28T16:23:45;34.0;;;21.0;;
21120;SDS011;12519;43.318;21.898;2023-02-28T16:28:27;34.0;;;21.0;;
21120;SDS011;12519;43.318;21.898;2023-02-28T16:33:14;47.0;;;30.0;;
21120;SDS011;12519;43.318;21.898;2023-02-28T16:37:51;47.0;;;30.0;;
21120;SDS011;12519;43.318;21.898;2023-02-28T16:42:31;60.0;;;40.0;;
21120;SDS011;12519;43.318;21.898;2023-02-28T16:47:10;60.0;;;40.0;;
21120;SDS011;12519;43.318;21.898;2023-02-28T16:51:47;60.0;;;40.0;;
21120;SDS011;12519;43.318;21.898;2023-02-28T16:56:25;50.0;;;34.0;;
21120;SDS011;12519;43.318;21.898;2023-02-28T17:01:02;50.0;;;34.0;;
21120;SDS011;12519;43.318;21.898;2023-02-28T17:05:40;41.0;;;27.0;;
21120;SDS011;12519;43.318;21.898;2023-02-28T17:10:17;41.0;;;27.0;;
21120;SDS011;12519;43.318;21.898;2023-02-28T17:15:02;35.0;;;26.0;;
21120;SDS011;12519;43.318;21.898;2023-02-28T17:19:46;35.0;;;26.0;;
21120;SDS011;12519;43.318;21.898;2023-02-28T17:24:24;29.0;;;24.0;;
21120;SDS011;12519;43.318;21.898;2023-02-28T17:29:00;29.0;;;24.0;;
21120;SDS011;12519;43.318;21.898;2023-02-28T17:33:37;29.0;;;24.0;;
21120;SDS011;12519;43.318;21.898;2023-02-28T17:38:15;29.0;;;24.0;;
21120;SDS011;12519;43.318;21.898;2023-02-28T17:42:55;29.0;;;23.0;;
21120;SDS011;12519;43.318;21.898;2023-02-28T17:47:32;29.0;;;23.0;;
21120;SDS011;12519;43.318;21.898;2023-02-28T17:52:08;29.0;;;23.0;;
21120;SDS011;12519;43.318;21.898;2023-02-28T17:56:44;34.0;;;24.0;;
21120;SDS011;12519;43.318;21.898;2023-02-28T18:01:21;34.0;;;24.0;;
21120;SDS011;12519;43.318;21.898;2023-02-28T18:06:00;40.0;;;26.0;;
21120;SDS011;12519;43.318;21.898;2023-02-28T18:10:40;40.0;;;26.0;;
21120;SDS011;12519;43.318;21.898;2023-02-28T18:15:17;40.0;;;27.0;;
21120;SDS011;12519;43.318;21.898;2023-02-28T18:19:57;40.0;;;27.0;;
21120;SDS011;12519;43.318;21.898;2023-02-28T18:24:34;41.0;;;28.0;;
21120;SDS011;12519;43.318;21.898;2023-02-28T18:29:15;41.0;;;28.0;;
21120;SDS011;12519;43.318;21.898;2023-02-28T18:33:58;34.0;;;26.0;;
21120;SDS011;12519;43.318;21.898;2023-02-28T18:38:36;34.0;;;26.0;;
21120;SDS011;12519;43.318;21.898;2023-02-28T18:43:14;26.0;;;24.0;;
21120;SDS011;12519;43.318;21.898;2023-02-28T18:47:50;26.0;;;24.0;;
21120;SDS011;12519;43.318;21.898;2023-02-28T18:52:26;26.0;;;24.0;;
21120;SDS011;12519;43.318;21.898;2023-02-28T18:57:03;25.0;;;22.0;;
21120;SDS011;12519;43.318;21.898;2023-02-28T19:01:40;25.0;;;22.0;;
21120;SDS011;12519;43.318;21.898;2023-02-28T19:06:17;24.0;;;19.0;;
21120;SDS011;12519;43.318;21.898;2023-02-28T19:10:55;24.0;;;19.0;;
21120;SDS011;12519;43.318;21.898;2023-02-28T19:15:31;28.0;;;22.0;;
21120;SDS011;12519;43.318;21.898;2023-02-28T19:20:09;28.0;;;22.0;;
21120;SDS011;12519;43.318;21.898;2023-02-28T19:24:48;32.0;;;25.0;;
21120;SDS011;12519;43.318;21.898;2023-02-28T19:29:26;32.0;;;25.0;;
21120;SDS011;12519;43.318;21.898;2023-02-28T19:34:03;28.0;;;23.0;;
21120;SDS011;12519;43.318;21.898;2023-02-28T19:38:40;28.0;;;23.0;;
21120;SDS011;12519;43.318;21.898;2023-02-28T19:43:19;25.0;;;21.0;;
21120;SDS011;12519;43.318;21.898;2023-02-28T19:47:56;25.0;;;21.0;;
21120;SDS011;12519;43.318;21.898;2023-02-28T19:52:32;25.0;;;21.0;;
21120;SDS011;12519;43.318;21.898;2023-02-28T19:57:09;26.0;;;20.0;;
21120;SDS011;12519;43.318;21.898;2023-02-28T20:01:46;26.0;;;20.0;;
21120;SDS011;12519;43.318;21.898;2023-02-28T20:06:22;26.0;;;20.0;;
21120;SDS011;12519;43.318;21.898;2023-02-28T20:11:01;26.0;;;20.0;;
21120;SDS011;12519;43.318;21.898;2023-02-28T20:15:42;28.0;;;20.0;;
21120;SDS011;12519;43.318;21.898;2023-02-28T20:20:18;28.0;;;20.0;;
21120;SDS011;12519;43.318;21.898;2023-02-28T20:24:54;30.0;;;20.0;;
21120;SDS011;12519;43.318;21.898;2023-02-28T20:29:31;30.0;;;20.0;;
21120;SDS011;12519;43.318;21.898;2023-02-28T20:34:09;27.0;;;19.0;;
21120;SDS011;12519;43.318;21.898;2023-02-28T20:38:46;27.0;;;19.0;;
21120;SDS011;12519;43.318;21.898;2023-02-28T20:43:25;24.0;;;18.0;;
21120;SDS011;12519;43.318;21.898;2023-02-28T20:48:03;24.0;;;18.0;;
21120;SDS011;12519;43.318;21.898;2023-02-28T20:52:40;24.0;;;18.0;;
21120;SDS011;12519;43.318;21.898;2023-02-28T20:57:16;24.0;;;19.0;;
21120;SDS011;12519;43.318;21.898;2023-02-28T21:01:52;24.0;;;19.0;;
21120;SDS011;12519;43.318;21.898;2023-02-28T21:06:30;23.0;;;20.0;;
21120;SDS011;12519;43.318;21.898;2023-02-28T21:11:16;23.0;;;20.0;;
21120;SDS011;12519;43.318;21.898;2023-02-28T21:16:03;30.0;;;22.0;;
21120;SDS011;12519;43.318;21.898;2023-02-28T21:20:47;30.0;;;22.0;;
21120;SDS011;12519;43.318;21.898;2023-02-28T21:25:23;36.0;;;25.0;;
21120;SDS011;12519;43.318;21.898;2023-02-28T21:30:00;36.0;;;25.0;;
21120;SDS011;12519;43.318;21.898;2023-02-28T21:34:36;27.0;;;20.0;;
21120;SDS011;12519;43.318;21.898;2023-02-28T21:39:14;27.0;;;20.0;;
21120;SDS011;12519;43.318;21.898;2023-02-28T21:44:01;18.0;;;16.0;;
21120;SDS011;12519;43.318;21.898;2023-02-28T21:48:40;18.0;;;16.0;;
21120;SDS011;12519;43.318;21.898;2023-02-28T21:53:18;18.0;;;17.0;;
21120;SDS011;12519;43.318;21.898;2023-02-28T21:57:55;18.0;;;17.0;;
21120;SDS011;12519;43.318;21.898;2023-02-28T22:02:31;18.0;;;17.0;;
21120;SDS011;12519;43.318;21.898;2023-02-28T22:07:08;19.0;;;18.0;;
21120;SDS011;12519;43.318;21.898;2023-02-28T22:11:45;19.0;;;18.0;;
21120;SDS011;12519;43.318;21.898;2023-02-28T22:16:25;23.0;;;19.0;;
21120;SDS011;12519;43.318;21.898;2023-02-28T22:21:09;23.0;;;19.0;;
21120;SDS011;12519;43.318;21.898;2023-02-28T22:25:54;27.0;;;20.0;;
21120;SDS011;12519;43.318;21.898;2023-02-28T22:30:40;27.0;;;20.0;;
21120;SDS011;12519;43.318;21.898;2023-02-28T22:35:17;28.0;;;23.0;;
21120;SDS011;12519;43.318;21.898;2023-02-28T22:39:54;28.0;;;23.0;;
21120;SDS011;12519;43.318;21.898;2023-02-28T22:44:30;29.0;;;26.0;;
21120;SDS011;12519;43.318;21.898;2023-02-28T22:49:07;29.0;;;26.0;;
21120;SDS011;12519;43.318;21.898;2023-02-28T22:53:44;26.0;;;24.0;;
21120;SDS011;12519;43.318;21.898;2023-02-28T22:58:26;26.0;;;24.0;;
21120;SDS011;12519;43.318;21.898;2023-02-28T23:03:04;24.0;;;22.0;;
21120;SDS011;12519;43.318;21.898;2023-02-28T23:07:40;24.0;;;22.0;;
21120;SDS011;12519;43.318;21.898;2023-02-28T23:12:18;24.0;;;22.0;;
21120;SDS011;12519;43.318;21.898;2023-02-28T23:16:54;22.0;;;20.0;;
21120;SDS011;12519;43.318;21.898;2023-02-28T23:21:31;22.0;;;20.0;;
21120;SDS011;12519;43.318;21.898;2023-02-28T23:26:11;20.0;;;19.0;;
21120;SDS011;12519;43.318;21.898;2023-02-28T23:30:47;20.0;;;19.0;;
21120;SDS011;12519;43.318;21.898;2023-02-28T23:35:24;22.0;;;19.0;;
21120;SDS011;12519;43.318;21.898;2023-02-28T23:40:00;22.0;;;19.0;;
21120;SDS011;12519;43.318;21.898;2023-02-28T23:44:46;25.0;;;19.0;;
21120;SDS011;12519;43.318;21.898;2023-02-28T23:49:22;25.0;;;19.0;;
21120;SDS011;12519;43.318;21.898;2023-02-28T23:53:59;26.0;;;20.0;;
21120;SDS011;12519;43.318;21.898;2023-02-28T23:58:36;26.0;;;20.0;;
